Accueil
METAR-TAF:

METAR-TAF

Aéroports :

Plate-forme pétrolière

Euro, Pays-Bas

latitude: 51-59-52N, longitude: 3-16-30E, altitude: 18 m

Observation

Le bulletin a été fait il y a 27 minutes, à 08:55 UTC
Vent 14 kt de sud
Température 6°C
Humidité 93%
Pression 1042 hPa
Visibilité: 7000 m

METAR: EHSA 210855Z AUTO 19014KT 7000 ///////// 06/05 Q1042 W06/H7

Heure: 10:22 (09:22 UTC)


TAF: absent

Observations et prévisions météorologiques de plus de 4000 aéroports (messages METAR et TAF).

Les stations disponibles sont représentées par des disques jaunes et rouges sur la carte.

Passer la souris dessus pour voir le nom de la station.

Cliquer dessus pour voir les observations et prévisions météorologiques.

Pour changer de carte: cliquez sur les boutons verts avec une croix noire pour zoomer, sur le bouton vert avec un tiret pour effectuer un zoom arrière, ou sur les flèches vertes pour les cartes adjacentes.


METAR-TAF: